createdAt,value
2018-04-06T00:03:26.698Z,3.30
2018-04-06T00:07:29.230Z,3.20
2018-04-06T00:11:32.525Z,3.20
2018-04-06T00:15:35.810Z,3.10
2018-04-06T00:19:38.330Z,3.10
2018-04-06T00:23:40.865Z,3.10
2018-04-06T00:27:43.393Z,3.10
2018-04-06T00:31:46.697Z,3.00
2018-04-06T00:35:49.965Z,3.00
2018-04-06T00:39:52.488Z,2.90
2018-04-06T00:43:55.004Z,3.00
2018-04-06T00:47:57.549Z,2.90
2018-04-06T00:52:00.850Z,2.80
2018-04-06T00:56:03.353Z,2.80
2018-04-06T01:00:05.883Z,2.80
2018-04-06T01:04:08.417Z,2.80
2018-04-06T01:08:10.960Z,2.70
2018-04-06T01:12:13.542Z,2.70
2018-04-06T01:16:16.073Z,2.70
2018-04-06T01:20:18.585Z,2.60
2018-04-06T01:24:21.108Z,2.60
2018-04-06T01:28:23.632Z,2.60
2018-04-06T01:32:26.165Z,2.50
2018-04-06T01:36:28.703Z,2.50
2018-04-06T01:40:31.295Z,2.50
2018-04-06T01:44:33.828Z,2.50
2018-04-06T01:48:36.356Z,2.40
2018-04-06T01:52:38.882Z,2.40
2018-04-06T01:56:41.444Z,2.30
2018-04-06T02:00:43.960Z,2.30
2018-04-06T02:04:46.482Z,2.20
2018-04-06T02:08:49.781Z,2.20
2018-04-06T02:12:52.313Z,2.10
2018-04-06T02:16:54.837Z,2.10
2018-04-06T02:20:58.114Z,2.10
2018-04-06T02:25:00.645Z,2.00
2018-04-06T02:29:03.178Z,2.10
2018-04-06T02:33:05.713Z,2.00
2018-04-06T02:37:08.222Z,2.00
2018-04-06T02:41:10.766Z,2.00
2018-04-06T02:45:13.307Z,1.90
2018-04-06T02:49:15.844Z,1.90
2018-04-06T02:53:18.385Z,1.90
2018-04-06T02:57:20.906Z,1.90
2018-04-06T03:01:24.196Z,1.90
2018-04-06T03:05:26.725Z,1.80
2018-04-06T03:09:29.280Z,1.90
2018-04-06T03:13:32.606Z,1.90
2018-04-06T03:17:35.153Z,1.80
2018-04-06T03:21:37.704Z,1.80
2018-04-06T03:25:40.246Z,1.80
2018-04-06T03:29:43.067Z,1.80
2018-04-06T03:33:45.625Z,1.70
2018-04-06T03:37:48.148Z,1.70
2018-04-06T03:41:50.673Z,1.70
2018-04-06T03:45:53.201Z,1.60
2018-04-06T03:49:56.134Z,1.60
2018-04-06T03:53:59.454Z,1.60
2018-04-06T03:58:02.758Z,1.60
2018-04-06T04:02:06.092Z,1.50
2018-04-06T04:06:08.677Z,1.50
2018-04-06T04:10:11.208Z,1.50
2018-04-06T04:14:13.712Z,1.50
2018-04-06T04:18:16.233Z,1.40
2018-04-06T04:22:18.778Z,1.40
2018-04-06T04:26:21.316Z,1.40
2018-04-06T04:30:23.838Z,1.40
2018-04-06T04:34:26.353Z,1.40
2018-04-06T04:38:28.906Z,1.30
2018-04-06T04:42:31.468Z,1.40
2018-04-06T04:46:33.985Z,1.30
2018-04-06T04:50:36.521Z,1.30
2018-04-06T04:54:39.025Z,1.30
2018-04-06T04:58:41.552Z,1.30
2018-04-06T05:02:44.091Z,1.30
2018-04-06T05:06:46.621Z,1.30
2018-04-06T05:10:49.949Z,1.30
2018-04-06T05:14:52.458Z,1.20
2018-04-06T05:18:54.981Z,1.30
2018-04-06T05:22:57.520Z,1.30
2018-04-06T05:27:00.044Z,1.30
2018-04-06T05:31:02.555Z,1.30
2018-04-06T05:35:05.863Z,1.40
2018-04-06T05:39:09.154Z,1.40
2018-04-06T05:43:12.448Z,1.50
2018-04-06T05:47:14.976Z,1.40
2018-04-06T05:51:17.485Z,1.50
2018-04-06T05:55:20.014Z,1.60
2018-04-06T05:59:23.309Z,1.70
2018-04-06T06:03:26.602Z,1.80
2018-04-06T06:07:29.120Z,1.70
2018-04-06T06:11:31.632Z,1.90
2018-04-06T06:15:34.156Z,1.90
2018-04-06T06:19:36.689Z,2.00
2018-04-06T06:23:39.310Z,2.10
2018-04-06T06:27:41.829Z,2.20
2018-04-06T06:31:44.375Z,2.30
2018-04-06T06:35:46.901Z,2.30
2018-04-06T06:39:49.429Z,2.40
2018-04-06T06:43:51.945Z,2.60
2018-04-06T06:47:54.640Z,2.70
2018-04-06T06:51:57.145Z,2.80
2018-04-06T06:56:00.448Z,3.10
2018-04-06T07:00:03.857Z,3.20
2018-04-06T07:04:07.622Z,3.20
2018-04-06T07:08:10.938Z,3.40
2018-04-06T07:12:13.570Z,3.50
2018-04-06T07:16:16.103Z,3.70
2018-04-06T07:20:18.624Z,3.90
2018-04-06T07:24:21.912Z,4.30
2018-04-06T07:28:24.432Z,4.30
2018-04-06T07:32:26.944Z,4.60
2018-04-06T07:36:29.490Z,4.80
2018-04-06T07:40:32.013Z,5.10
2018-04-06T07:44:34.542Z,5.40
2018-04-06T07:52:40.988Z,5.80
2018-04-06T07:56:43.529Z,6.10
2018-04-06T08:00:46.817Z,6.70
2018-04-06T08:04:49.345Z,6.60
2018-04-06T08:08:51.877Z,6.90
2018-04-06T17:06:04.833Z,18.70
2018-04-06T17:10:08.112Z,18.40
2018-04-06T17:14:11.401Z,18.10
2018-04-06T17:18:14.708Z,18.00
2018-04-06T17:22:18.026Z,17.70
2018-04-06T17:26:20.569Z,17.70
2018-04-06T17:30:23.073Z,17.40
2018-04-06T17:34:25.598Z,17.20
2018-04-06T17:38:28.137Z,16.90
2018-04-06T17:42:30.664Z,16.60
2018-04-06T17:46:33.186Z,16.30
2018-04-06T17:50:35.707Z,16.10
2018-04-06T17:54:39.001Z,15.50
2018-04-06T17:58:42.297Z,15.30
2018-04-06T18:02:44.836Z,15.30
2018-04-06T18:06:47.396Z,15.20
2018-04-06T18:10:49.913Z,15.00
2018-04-06T18:14:52.441Z,14.80
2018-04-06T18:18:55.736Z,14.40
2018-04-06T18:22:58.261Z,14.30
2018-04-06T18:27:00.792Z,14.20
2018-04-06T18:31:03.305Z,14.10
2018-04-06T18:35:05.857Z,13.90
2018-04-06T18:39:08.445Z,13.80
2018-04-06T18:43:10.969Z,13.60
2018-04-06T18:47:14.303Z,13.40
2018-04-06T18:51:16.814Z,13.30
2018-04-06T18:55:19.339Z,13.20
2018-04-06T18:59:22.674Z,13.00
2018-04-06T19:03:25.240Z,12.90
2018-04-06T19:07:27.822Z,12.90
2018-04-06T19:11:30.356Z,12.80
2018-04-06T19:15:32.910Z,12.70
2018-04-06T19:19:35.458Z,12.60
2018-04-06T19:23:38.777Z,12.40
2018-04-06T19:27:41.322Z,12.40
2018-04-06T19:31:43.880Z,12.40
2018-04-06T19:35:46.389Z,12.30
2018-04-06T19:39:48.921Z,12.30
2018-04-06T19:43:51.455Z,12.20
2018-04-06T19:47:53.997Z,12.10
2018-04-06T19:51:56.520Z,12.00
2018-04-06T19:55:59.026Z,11.90
2018-04-06T20:00:01.554Z,11.80
2018-04-06T20:04:04.097Z,11.70
2018-04-06T20:08:07.406Z,11.50
2018-04-06T20:12:09.951Z,11.50
2018-04-06T20:16:12.481Z,11.50
2018-04-06T20:20:15.778Z,11.30
2018-04-06T20:24:18.309Z,11.20
2018-04-06T20:28:20.891Z,11.20
2018-04-06T20:32:24.166Z,11.10
2018-04-06T20:36:27.460Z,11.00
2018-04-06T20:40:30.004Z,10.90
2018-04-06T20:44:32.545Z,11.00
2018-04-06T20:48:35.107Z,10.90
2018-04-06T20:52:37.668Z,10.80
2018-04-06T20:56:40.191Z,10.70
2018-04-06T21:00:42.744Z,10.60
2018-04-06T21:04:45.306Z,10.50
2018-04-06T21:08:47.836Z,10.50
2018-04-06T21:12:51.132Z,10.40
2018-04-06T21:16:53.657Z,10.40
2018-04-06T21:20:56.201Z,10.40
2018-04-06T21:24:58.728Z,10.30
2018-04-06T21:29:02.035Z,10.10
2018-04-06T21:33:04.577Z,10.10
2018-04-06T21:37:07.097Z,10.10
2018-04-06T21:41:09.641Z,10.00
2018-04-06T21:45:12.170Z,9.90
2018-04-06T21:49:14.812Z,9.80
2018-04-06T21:53:17.359Z,9.80
2018-04-06T21:57:19.878Z,9.70
2018-04-06T22:01:22.444Z,9.60
2018-04-06T22:05:25.786Z,9.50
2018-04-06T22:09:28.333Z,9.40
2018-04-06T22:13:31.777Z,9.40
2018-04-06T22:17:35.100Z,9.30
2018-04-06T22:21:37.605Z,9.30
2018-04-06T22:25:40.137Z,9.30
2018-04-06T22:29:42.789Z,9.30
2018-04-06T22:33:45.323Z,9.20
2018-04-06T22:37:48.620Z,9.20
2018-04-06T22:41:51.898Z,9.20
2018-04-06T22:45:54.433Z,9.20
2018-04-06T22:49:56.977Z,9.20
2018-04-06T22:53:59.516Z,9.20
2018-04-06T22:58:02.050Z,9.20
2018-04-06T23:02:04.562Z,9.20
2018-04-06T23:06:07.085Z,9.20
2018-04-06T23:10:09.626Z,9.20
2018-04-06T23:14:13.433Z,9.20
2018-04-06T23:18:16.728Z,9.20
2018-04-06T23:22:19.238Z,9.20
2018-04-06T23:26:21.761Z,9.20
2018-04-06T23:30:24.294Z,9.20
2018-04-06T23:34:27.584Z,9.20
2018-04-06T23:38:30.878Z,9.20
2018-04-06T23:42:33.385Z,9.10
2018-04-06T23:46:36.682Z,9.10
2018-04-06T23:50:39.978Z,9.10
2018-04-06T23:54:43.269Z,9.10
2018-04-06T23:58:45.793Z,9.00
